createdAt,value
2023-02-28T00:01:29.361Z,10.65
2023-02-28T00:03:57.053Z,11.70
2023-02-28T00:06:25.324Z,10.95
2023-02-28T00:08:52.488Z,11.57
2023-02-28T00:11:19.545Z,11.20
2023-02-28T00:13:47.836Z,11.23
2023-02-28T00:16:21.662Z,11.00
2023-02-28T00:18:49.291Z,10.55
2023-02-28T00:21:17.367Z,10.75
2023-02-28T00:23:44.962Z,10.27
2023-02-28T00:26:12.156Z,9.95
2023-02-28T00:28:41.234Z,10.10
2023-02-28T00:31:08.316Z,10.45
2023-02-28T00:33:35.516Z,10.90
2023-02-28T00:36:12.616Z,9.80
2023-02-28T00:38:40.461Z,10.18
2023-02-28T00:41:08.309Z,10.38
2023-02-28T00:43:36.902Z,10.10
2023-02-28T00:46:04.461Z,10.32
2023-02-28T00:48:31.940Z,10.20
2023-02-28T00:50:58.977Z,10.02
2023-02-28T00:53:27.246Z,10.68
2023-02-28T00:55:54.544Z,9.80
2023-02-28T00:58:21.757Z,10.45
2023-02-28T01:00:52.709Z,10.25
2023-02-28T01:03:20.975Z,10.00
2023-02-28T01:05:48.480Z,10.63
2023-02-28T01:08:16.086Z,11.25
2023-02-28T01:10:43.655Z,10.82
2023-02-28T01:13:10.886Z,10.10
2023-02-28T01:15:47.185Z,9.68
2023-02-28T01:18:14.287Z,9.77
2023-02-28T01:20:41.674Z,9.75
2023-02-28T01:23:08.748Z,9.48
2023-02-28T01:25:36.970Z,10.00
2023-02-28T01:28:07.033Z,10.40
2023-02-28T01:30:34.233Z,9.43
2023-02-28T01:33:01.425Z,9.70
2023-02-28T01:35:28.468Z,10.27
2023-02-28T01:37:55.515Z,10.00
2023-02-28T01:40:23.481Z,10.02
2023-02-28T01:42:51.020Z,9.68
2023-02-28T01:45:26.219Z,10.45
2023-02-28T01:47:57.473Z,10.00
2023-02-28T01:50:28.186Z,12.97
2023-02-28T01:52:57.801Z,16.25
2023-02-28T01:55:29.654Z,18.58
2023-02-28T01:57:58.789Z,23.80
2023-02-28T02:00:30.448Z,23.75
2023-02-28T02:03:01.224Z,24.02
2023-02-28T02:05:32.164Z,24.65
2023-02-28T02:08:03.952Z,26.50
2023-02-28T02:10:41.242Z,26.17
2023-02-28T02:13:32.997Z,29.42
2023-02-28T02:16:02.752Z,20.73
2023-02-28T02:18:35.748Z,27.85
2023-02-28T02:21:08.579Z,27.92
2023-02-28T02:24:18.366Z,27.73
2023-02-28T02:27:07.198Z,27.67
2023-02-28T02:30:05.725Z,27.98
2023-02-28T02:33:05.249Z,28.58
2023-02-28T02:35:54.752Z,24.85
2023-02-28T02:38:42.653Z,26.85
2023-02-28T02:41:37.879Z,27.27
2023-02-28T02:44:27.175Z,27.52
2023-02-28T02:47:04.939Z,28.77
2023-02-28T02:49:41.536Z,30.77
2023-02-28T02:52:09.329Z,29.90
2023-02-28T02:54:44.563Z,30.35
2023-02-28T02:57:23.682Z,26.08
2023-02-28T02:59:51.506Z,27.65
2023-02-28T03:02:19.357Z,28.02
2023-02-28T03:04:54.990Z,28.45
2023-02-28T03:07:22.155Z,28.90
2023-02-28T03:09:58.838Z,27.95
2023-02-28T03:12:49.585Z,28.38
2023-02-28T03:15:21.352Z,27.88
2023-02-28T03:18:08.022Z,27.50
2023-02-28T03:20:57.854Z,28.50
2023-02-28T03:24:05.788Z,27.13
2023-02-28T03:26:35.807Z,28.67
2023-02-28T03:29:18.389Z,28.08
2023-02-28T03:31:57.093Z,28.77
2023-02-28T03:34:39.891Z,30.67
2023-02-28T03:37:16.489Z,27.98
2023-02-28T03:40:00.843Z,28.45
2023-02-28T03:42:30.545Z,26.73
2023-02-28T03:45:08.784Z,27.23
2023-02-28T03:47:44.344Z,27.08
2023-02-28T03:50:42.397Z,25.15
2023-02-28T03:53:21.689Z,27.23
2023-02-28T03:55:59.559Z,26.63
2023-02-28T03:58:43.770Z,26.77
2023-02-28T04:01:24.903Z,26.40
2023-02-28T04:03:51.983Z,26.40
2023-02-28T04:06:21.300Z,27.63
2023-02-28T04:08:48.969Z,28.85
2023-02-28T04:11:25.418Z,28.42
2023-02-28T04:13:52.385Z,27.73
2023-02-28T04:16:33.818Z,27.55
2023-02-28T04:19:06.002Z,26.98
2023-02-28T04:21:41.652Z,26.88
2023-02-28T04:24:17.262Z,25.17
2023-02-28T04:26:46.741Z,24.45
2023-02-28T04:29:24.609Z,25.80
2023-02-28T04:31:51.949Z,24.98
2023-02-28T04:34:20.095Z,23.00
2023-02-28T04:36:47.175Z,24.92
2023-02-28T04:39:14.608Z,26.10
2023-02-28T04:41:41.579Z,23.85
2023-02-28T04:44:08.580Z,23.35
2023-02-28T04:46:35.564Z,24.33
2023-02-28T04:49:02.608Z,23.92
2023-02-28T04:51:32.353Z,22.65
2023-02-28T04:53:59.494Z,21.60
2023-02-28T04:56:26.599Z,22.17
2023-02-28T04:58:54.244Z,22.88
2023-02-28T05:01:30.051Z,23.50
2023-02-28T05:03:58.994Z,22.25
2023-02-28T05:06:27.892Z,22.55
2023-02-28T05:08:55.168Z,22.00
2023-02-28T05:11:34.712Z,22.92
2023-02-28T05:14:03.428Z,22.50
2023-02-28T05:16:30.357Z,22.85
2023-02-28T05:18:57.789Z,22.17
2023-02-28T05:21:32.882Z,23.02
2023-02-28T05:24:03.346Z,22.83
2023-02-28T05:26:39.212Z,22.25
2023-02-28T05:29:06.322Z,21.17
2023-02-28T05:31:33.980Z,21.65
2023-02-28T05:34:01.184Z,21.58
2023-02-28T05:36:28.435Z,20.70
2023-02-28T05:38:55.365Z,20.25
2023-02-28T05:41:22.756Z,21.80
2023-02-28T05:43:49.805Z,21.42
2023-02-28T05:46:16.883Z,21.50
2023-02-28T05:48:46.654Z,22.55
2023-02-28T05:51:13.936Z,21.77
2023-02-28T05:53:41.081Z,21.63
2023-02-28T05:56:08.200Z,18.80
2023-02-28T05:58:37.414Z,21.73
2023-02-28T06:01:41.274Z,21.88
2023-02-28T06:04:22.363Z,18.58
2023-02-28T06:06:58.636Z,17.55
2023-02-28T06:09:26.100Z,19.85
2023-02-28T06:11:53.032Z,20.35
2023-02-28T06:14:21.052Z,20.67
2023-02-28T06:16:53.472Z,22.70
2023-02-28T06:19:23.841Z,21.83
2023-02-28T06:21:53.913Z,32.10
2023-02-28T06:24:21.993Z,31.00
2023-02-28T06:26:49.573Z,30.92
2023-02-28T06:29:18.040Z,39.15
2023-02-28T06:31:46.264Z,50.13
2023-02-28T06:34:13.998Z,51.78
2023-02-28T06:36:42.369Z,51.50
2023-02-28T06:39:10.199Z,53.72
2023-02-28T06:41:54.171Z,55.58
2023-02-28T06:44:23.166Z,52.30
2023-02-28T06:46:50.099Z,55.38
2023-02-28T06:49:17.676Z,53.35
2023-02-28T06:51:47.738Z,53.83
2023-02-28T06:54:17.193Z,53.85
2023-02-28T06:56:44.096Z,52.20
2023-02-28T06:59:11.180Z,53.03
2023-02-28T07:01:38.637Z,56.17
2023-02-28T07:04:06.775Z,57.10
2023-02-28T07:06:33.981Z,55.63
2023-02-28T07:09:01.176Z,66.57
2023-02-28T07:11:29.131Z,74.80
2023-02-28T07:14:05.527Z,65.95
2023-02-28T07:16:32.907Z,67.90
2023-02-28T07:19:00.213Z,67.13
2023-02-28T07:21:27.363Z,57.72
2023-02-28T07:23:57.653Z,55.05
2023-02-28T07:26:27.034Z,50.70
2023-02-28T07:28:55.325Z,48.50
2023-02-28T07:31:22.306Z,44.55
2023-02-28T07:33:49.439Z,39.50
2023-02-28T07:36:19.280Z,36.85
2023-02-28T07:38:49.209Z,40.78
2023-02-28T07:41:17.728Z,49.50
2023-02-28T07:43:45.683Z,47.13
2023-02-28T07:46:17.820Z,40.80
2023-02-28T07:51:12.036Z,36.92
2023-02-28T07:53:38.975Z,37.20
2023-02-28T07:56:06.377Z,32.95
2023-02-28T07:58:33.275Z,32.03
2023-02-28T08:01:07.441Z,33.35
2023-02-28T08:03:34.414Z,35.10
2023-02-28T08:06:07.542Z,34.88
2023-02-28T08:08:35.623Z,35.20
2023-02-28T08:11:05.889Z,34.15
2023-02-28T08:13:33.028Z,29.98
2023-02-28T08:16:02.861Z,29.88
2023-02-28T08:18:29.802Z,29.13
2023-02-28T08:21:01.468Z,29.83
2023-02-28T08:23:28.509Z,29.98
2023-02-28T08:25:56.875Z,23.45
2023-02-28T08:28:26.708Z,23.77
2023-02-28T08:30:54.776Z,16.85
2023-02-28T08:33:21.842Z,16.42
2023-02-28T08:35:48.738Z,16.88
2023-02-28T08:38:15.689Z,16.85
2023-02-28T08:40:43.788Z,16.25
2023-02-28T08:43:10.720Z,16.95
2023-02-28T08:45:40.153Z,19.75
2023-02-28T08:48:07.141Z,18.73
2023-02-28T08:50:34.032Z,22.63
2023-02-28T08:53:01.080Z,13.25
2023-02-28T08:55:28.014Z,14.00
2023-02-28T08:57:56.014Z,10.80
2023-02-28T09:00:23.606Z,10.25
2023-02-28T09:02:50.460Z,11.00
2023-02-28T09:05:17.666Z,8.90
2023-02-28T09:07:44.625Z,8.25
2023-02-28T09:10:12.036Z,8.60
2023-02-28T09:12:38.964Z,5.78
2023-02-28T09:15:06.908Z,5.93
2023-02-28T09:17:33.826Z,4.20
2023-02-28T09:20:00.738Z,4.10
2023-02-28T09:22:27.788Z,6.05
2023-02-28T09:24:57.274Z,3.95
2023-02-28T09:27:24.169Z,3.40
2023-02-28T09:29:51.097Z,3.85
2023-02-28T09:32:19.273Z,4.55
2023-02-28T09:34:46.267Z,5.60
2023-02-28T09:37:13.192Z,3.17
2023-02-28T09:39:40.086Z,2.70
2023-02-28T09:42:08.735Z,2.80
2023-02-28T09:44:45.352Z,2.88
2023-02-28T09:47:34.259Z,2.53
2023-02-28T09:50:24.236Z,5.22
2023-02-28T09:52:51.643Z,3.42
2023-02-28T09:55:21.793Z,3.75
2023-02-28T09:57:49.043Z,4.72
2023-02-28T10:00:19.495Z,6.18
2023-02-28T10:02:49.269Z,5.03
2023-02-28T10:05:19.340Z,4.57
2023-02-28T10:08:09.392Z,5.20
2023-02-28T10:10:45.071Z,4.75
2023-02-28T10:13:17.775Z,4.55
2023-02-28T10:15:46.906Z,4.57
2023-02-28T10:18:20.489Z,5.10
2023-02-28T10:20:47.908Z,5.18
2023-02-28T10:23:36.055Z,5.63
2023-02-28T10:26:12.925Z,5.50
2023-02-28T10:28:40.092Z,5.88
2023-02-28T10:31:14.934Z,5.78
2023-02-28T10:33:41.899Z,5.47
2023-02-28T10:36:15.876Z,5.30
2023-02-28T10:38:43.602Z,5.22
2023-02-28T10:41:13.384Z,5.35
2023-02-28T10:43:41.989Z,6.70
2023-02-28T10:46:16.016Z,5.35
2023-02-28T10:48:50.883Z,6.22
2023-02-28T10:51:20.564Z,6.82
2023-02-28T10:54:02.794Z,6.57
2023-02-28T10:56:33.613Z,5.35
2023-02-28T10:59:09.867Z,5.18
2023-02-28T11:01:49.897Z,4.60
2023-02-28T11:04:30.440Z,5.20
2023-02-28T11:07:02.795Z,5.00
2023-02-28T11:09:36.812Z,4.75
2023-02-28T11:12:07.589Z,4.60
2023-02-28T11:14:42.801Z,4.47
2023-02-28T11:17:22.578Z,4.70
2023-02-28T11:19:52.726Z,3.53
2023-02-28T11:22:27.027Z,4.38
2023-02-28T11:24:56.313Z,4.93
2023-02-28T11:27:32.532Z,3.80
2023-02-28T11:30:00.323Z,4.28
2023-02-28T11:32:30.069Z,4.03
2023-02-28T11:35:14.673Z,4.35
2023-02-28T11:37:41.781Z,3.75
2023-02-28T11:40:25.349Z,4.38
2023-02-28T11:43:06.155Z,4.00
2023-02-28T11:45:47.873Z,3.75
2023-02-28T11:48:28.832Z,4.20
2023-02-28T11:51:11.693Z,4.85
2023-02-28T11:53:41.882Z,3.72
2023-02-28T11:56:12.402Z,3.70
2023-02-28T11:59:02.993Z,3.55
2023-02-28T12:01:47.140Z,4.25
2023-02-28T12:04:17.063Z,3.85
2023-02-28T12:07:00.277Z,3.88
2023-02-28T12:09:48.558Z,3.95
2023-02-28T12:12:42.533Z,4.10
2023-02-28T12:15:32.518Z,4.50
2023-02-28T12:18:28.786Z,5.40
2023-02-28T12:21:25.875Z,4.22
2023-02-28T12:24:04.167Z,4.15
2023-02-28T12:26:41.434Z,4.07
2023-02-28T12:29:14.262Z,4.03
2023-02-28T12:31:46.414Z,3.78
2023-02-28T12:34:22.753Z,3.90
2023-02-28T12:36:50.260Z,4.13
2023-02-28T12:39:23.929Z,3.92
2023-02-28T12:42:25.854Z,4.10
2023-02-28T12:45:02.172Z,4.35
2023-02-28T12:47:29.165Z,3.95
2023-02-28T12:50:12.492Z,4.60
2023-02-28T12:52:59.596Z,4.40
2023-02-28T12:55:29.568Z,4.50
2023-02-28T12:58:03.643Z,4.35
2023-02-28T13:00:37.606Z,4.13
2023-02-28T13:03:33.594Z,4.22
2023-02-28T13:06:10.067Z,3.25
2023-02-28T13:08:52.109Z,3.53
2023-02-28T13:11:31.073Z,3.70
2023-02-28T13:14:04.112Z,3.92
2023-02-28T13:17:00.365Z,4.15
2023-02-28T13:19:31.831Z,3.53
2023-02-28T13:21:59.837Z,3.38
2023-02-28T13:24:41.146Z,4.25
2023-02-28T13:27:09.514Z,3.00
2023-02-28T13:29:43.120Z,2.97
2023-02-28T13:32:10.112Z,4.45
2023-02-28T13:34:38.215Z,2.83
2023-02-28T13:37:24.269Z,3.40
2023-02-28T13:39:54.516Z,3.00
2023-02-28T13:42:45.482Z,3.08
2023-02-28T13:45:12.311Z,3.58
2023-02-28T13:47:50.034Z,3.50
2023-02-28T13:50:23.179Z,3.40
2023-02-28T13:53:14.911Z,3.03
2023-02-28T13:55:48.145Z,3.33
2023-02-28T13:58:27.179Z,3.95
2023-02-28T14:01:23.987Z,4.28
2023-02-28T14:03:58.687Z,5.28
2023-02-28T14:06:25.572Z,5.25
2023-02-28T14:08:52.517Z,4.50
2023-02-28T14:11:34.290Z,4.25
2023-02-28T14:14:02.289Z,4.03
2023-02-28T14:16:36.597Z,4.28
2023-02-28T14:19:11.438Z,4.43
2023-02-28T14:21:45.485Z,5.10
2023-02-28T14:24:32.760Z,5.22
2023-02-28T14:27:28.220Z,4.45
2023-02-28T14:30:34.212Z,4.25
2023-02-28T14:33:19.912Z,4.78
2023-02-28T14:36:13.401Z,4.57
2023-02-28T14:38:54.877Z,5.22
2023-02-28T14:41:30.167Z,5.80
2023-02-28T14:44:01.782Z,7.13
2023-02-28T14:46:37.206Z,9.05
2023-02-28T14:49:08.286Z,5.60
2023-02-28T14:51:37.310Z,6.22
2023-02-28T14:54:05.409Z,5.53
2023-02-28T14:56:42.289Z,5.47
2023-02-28T14:59:31.839Z,6.80
2023-02-28T15:02:22.393Z,9.30
2023-02-28T15:05:02.096Z,6.85
2023-02-28T15:07:29.669Z,6.20
2023-02-28T15:10:15.656Z,7.32
2023-02-28T15:12:43.951Z,6.88
2023-02-28T15:15:28.149Z,5.47
2023-02-28T15:18:04.912Z,5.13
2023-02-28T15:20:33.576Z,5.20
2023-02-28T15:23:00.754Z,3.78
2023-02-28T15:25:27.957Z,7.03
2023-02-28T15:27:58.584Z,5.38
2023-02-28T15:30:33.637Z,7.95
2023-02-28T15:33:23.294Z,4.85
2023-02-28T15:35:52.638Z,4.43
2023-02-28T15:38:24.214Z,4.07
2023-02-28T15:40:56.414Z,4.97
2023-02-28T15:46:01.025Z,5.10
2023-02-28T15:48:36.085Z,5.63
2023-02-28T15:51:09.928Z,5.45
2023-02-28T15:53:44.066Z,5.20
2023-02-28T15:56:28.742Z,5.25
2023-02-28T15:59:01.211Z,6.50
2023-02-28T16:01:41.392Z,5.57
2023-02-28T16:04:15.029Z,6.05
2023-02-28T16:06:45.458Z,6.07
2023-02-28T16:09:17.686Z,5.47
2023-02-28T16:14:24.116Z,6.10
2023-02-28T16:16:56.047Z,5.55
2023-02-28T16:19:23.515Z,6.63
2023-02-28T16:21:50.988Z,6.78
2023-02-28T16:24:18.017Z,7.53
2023-02-28T16:26:49.413Z,8.38
2023-02-28T16:29:24.723Z,7.95
2023-02-28T16:31:51.774Z,8.13
2023-02-28T16:34:18.760Z,8.52
2023-02-28T16:36:48.201Z,9.05
2023-02-28T16:39:15.293Z,9.85
2023-02-28T16:41:46.472Z,9.00
2023-02-28T16:44:22.625Z,9.88
2023-02-28T16:46:49.532Z,9.90
2023-02-28T16:49:16.489Z,11.35
2023-02-28T16:51:43.411Z,11.68
2023-02-28T16:54:10.339Z,11.77
2023-02-28T16:56:46.542Z,14.13
2023-02-28T16:59:20.081Z,16.67
2023-02-28T17:01:47.092Z,18.30
2023-02-28T17:04:15.312Z,18.00
2023-02-28T17:06:42.221Z,20.80
2023-02-28T17:09:26.324Z,21.80
2023-02-28T17:11:57.956Z,20.25
2023-02-28T17:14:28.016Z,17.23
2023-02-28T17:16:54.899Z,19.70
2023-02-28T17:19:21.845Z,21.33
2023-02-28T17:21:48.855Z,19.50
2023-02-28T17:24:22.107Z,19.77
2023-02-28T17:26:52.315Z,22.13
2023-02-28T17:29:22.097Z,47.28
2023-02-28T17:31:49.350Z,69.82
2023-02-28T17:34:22.577Z,68.30
2023-02-28T17:36:51.661Z,63.38
2023-02-28T17:39:25.309Z,60.63
2023-02-28T17:41:59.029Z,118.97
2023-02-28T17:44:26.196Z,79.88
2023-02-28T17:46:55.327Z,97.40
2023-02-28T17:49:22.536Z,99.13
2023-02-28T17:51:50.260Z,92.07
2023-02-28T17:54:18.333Z,100.88
2023-02-28T17:56:46.156Z,83.88
2023-02-28T17:59:15.616Z,74.78
2023-02-28T18:01:42.611Z,79.40
2023-02-28T18:04:11.762Z,79.43
2023-02-28T18:06:48.865Z,94.30
2023-02-28T18:09:17.752Z,101.57
2023-02-28T18:11:50.118Z,96.68
2023-02-28T18:14:18.627Z,88.13
2023-02-28T18:16:46.057Z,80.95
2023-02-28T18:19:17.375Z,71.60
2023-02-28T18:21:50.697Z,70.00
2023-02-28T18:24:19.370Z,62.03
2023-02-28T18:26:46.436Z,56.58
2023-02-28T18:29:24.834Z,54.80
2023-02-28T18:31:52.864Z,53.28
2023-02-28T18:34:21.272Z,52.53
2023-02-28T18:36:50.513Z,47.15
2023-02-28T18:39:17.898Z,47.88
2023-02-28T18:41:44.997Z,46.78
2023-02-28T18:44:19.798Z,48.15
2023-02-28T18:46:48.551Z,49.78
2023-02-28T18:49:15.501Z,49.92
2023-02-28T18:51:46.886Z,53.75
2023-02-28T18:54:15.266Z,39.50
2023-02-28T18:56:42.308Z,49.58
2023-02-28T18:59:09.537Z,50.35
2023-02-28T19:01:36.504Z,62.92
2023-02-28T19:04:04.112Z,61.47
2023-02-28T19:06:32.433Z,59.95
2023-02-28T19:09:01.406Z,59.70
2023-02-28T19:11:29.036Z,64.00
2023-02-28T19:13:56.555Z,65.97
2023-02-28T19:16:24.020Z,65.47
2023-02-28T19:18:51.187Z,62.63
2023-02-28T19:21:22.461Z,56.80
2023-02-28T19:23:49.571Z,60.88
2023-02-28T19:26:22.761Z,62.90
2023-02-28T19:28:50.268Z,58.92
2023-02-28T19:31:22.963Z,55.55
2023-02-28T19:33:52.994Z,54.25
2023-02-28T19:36:20.650Z,53.90
2023-02-28T19:38:47.903Z,56.13
2023-02-28T19:41:16.582Z,53.00
2023-02-28T19:43:44.119Z,53.17
2023-02-28T19:46:12.126Z,54.40
2023-02-28T19:48:39.816Z,52.78
2023-02-28T19:51:10.206Z,54.53
2023-02-28T19:53:38.495Z,55.10
2023-02-28T19:56:06.362Z,58.25
2023-02-28T19:58:33.627Z,58.67
2023-02-28T20:01:08.003Z,57.20
2023-02-28T20:03:35.012Z,58.38
2023-02-28T20:06:08.045Z,59.67
2023-02-28T20:08:35.169Z,58.25
2023-02-28T20:11:04.366Z,59.08
2023-02-28T20:13:33.979Z,60.97
2023-02-28T20:16:02.748Z,59.15
2023-02-28T20:18:29.919Z,64.00
2023-02-28T20:20:57.412Z,57.17
2023-02-28T20:23:25.277Z,55.13
2023-02-28T20:25:52.492Z,54.30
2023-02-28T20:28:19.931Z,54.10
2023-02-28T20:30:50.496Z,54.22
2023-02-28T20:33:18.327Z,55.42
2023-02-28T20:35:45.565Z,56.40
2023-02-28T20:38:12.644Z,57.10
2023-02-28T20:40:40.523Z,57.60
2023-02-28T20:43:07.499Z,55.90
2023-02-28T20:45:36.545Z,52.25
2023-02-28T20:48:03.711Z,55.00
2023-02-28T20:50:30.668Z,58.67
2023-02-28T20:53:02.368Z,57.65
2023-02-28T20:55:31.484Z,56.65
2023-02-28T20:57:58.478Z,55.83
2023-02-28T21:00:26.536Z,53.33
2023-02-28T21:02:53.586Z,50.60
2023-02-28T21:05:20.591Z,50.88
2023-02-28T21:07:47.567Z,54.47
2023-02-28T21:10:17.149Z,63.08
2023-02-28T21:13:03.678Z,61.25
2023-02-28T21:15:30.705Z,60.42
2023-02-28T21:17:57.677Z,58.22
2023-02-28T21:20:24.945Z,53.40
2023-02-28T21:22:53.653Z,53.20
2023-02-28T21:25:20.604Z,56.17
2023-02-28T21:27:48.480Z,59.88
2023-02-28T21:30:15.589Z,63.90
2023-02-28T21:32:43.844Z,62.35
2023-02-28T21:35:10.775Z,65.75
2023-02-28T21:37:38.634Z,60.88
2023-02-28T21:40:06.704Z,57.95
2023-02-28T21:42:34.038Z,57.60
2023-02-28T21:45:01.840Z,53.95
2023-02-28T21:47:32.839Z,54.58
2023-02-28T21:49:59.915Z,58.97
2023-02-28T21:52:26.900Z,51.65
2023-02-28T21:54:56.250Z,60.67
2023-02-28T21:57:23.299Z,65.85
2023-02-28T21:59:50.315Z,65.32
2023-02-28T22:02:17.350Z,57.13
2023-02-28T22:04:44.231Z,63.13
2023-02-28T22:07:11.173Z,58.00
2023-02-28T22:09:38.067Z,64.13
2023-02-28T22:12:08.518Z,67.65
2023-02-28T22:14:35.540Z,69.65
2023-02-28T22:17:02.516Z,71.38
2023-02-28T22:19:29.518Z,66.40
2023-02-28T22:21:58.820Z,71.90
2023-02-28T22:24:27.973Z,63.42
2023-02-28T22:26:54.977Z,56.00
2023-02-28T22:29:22.057Z,51.10
2023-02-28T22:31:49.190Z,50.60
2023-02-28T22:34:16.214Z,53.85
2023-02-28T22:36:43.854Z,53.88
2023-02-28T22:39:11.239Z,47.20
2023-02-28T22:41:38.717Z,48.70
2023-02-28T22:44:07.131Z,43.83
2023-02-28T22:46:35.242Z,44.60
2023-02-28T22:49:03.837Z,40.05
2023-02-28T22:51:30.921Z,36.83
2023-02-28T22:53:58.659Z,35.80
2023-02-28T22:56:28.220Z,35.47
2023-02-28T22:58:57.290Z,35.88
2023-02-28T23:01:26.618Z,33.25
2023-02-28T23:03:53.831Z,33.53
2023-02-28T23:06:27.508Z,31.73
2023-02-28T23:08:58.009Z,33.30
2023-02-28T23:11:29.320Z,34.47
2023-02-28T23:13:58.620Z,32.20
2023-02-28T23:16:53.767Z,34.03
2023-02-28T23:19:27.805Z,35.17
2023-02-28T23:21:57.360Z,32.58
2023-02-28T23:24:26.313Z,33.55
2023-02-28T23:26:55.551Z,34.97
2023-02-28T23:29:23.346Z,35.17
2023-02-28T23:31:50.591Z,32.60
2023-02-28T23:34:24.871Z,31.60
2023-02-28T23:36:52.220Z,32.10
2023-02-28T23:39:19.925Z,32.25
2023-02-28T23:41:46.897Z,31.75
2023-02-28T23:44:19.925Z,32.90
2023-02-28T23:46:49.484Z,32.35
2023-02-28T23:49:19.985Z,32.17
2023-02-28T23:51:49.050Z,30.67
2023-02-28T23:54:17.465Z,29.98
2023-02-28T23:56:44.522Z,31.45
2023-02-28T23:59:11.544Z,31.08
